createdAt,value
2022-11-17T00:00:26.288Z,93614.53
2022-11-17T00:05:28.134Z,93603.47
2022-11-17T00:10:30.085Z,93608.38
2022-11-17T00:15:32.065Z,93613.06
2022-11-17T00:21:00.358Z,93618.41
2022-11-17T00:26:02.501Z,93588.59
2022-11-17T00:31:23.194Z,93606.16
2022-11-17T00:36:25.927Z,93617.72
2022-11-17T00:41:28.876Z,93614.25
2022-11-17T00:46:31.206Z,93601.38
2022-11-17T00:51:35.590Z,93592.94
2022-11-17T00:56:37.665Z,93595.63
2022-11-17T01:01:40.300Z,93589.41
2022-11-17T01:06:47.065Z,93590.34
2022-11-17T01:11:50.783Z,93583.88
2022-11-17T01:16:53.503Z,93584.22
2022-11-17T01:21:55.487Z,93580.75
2022-11-17T01:26:57.547Z,93567.47
2022-11-17T01:31:59.449Z,93561.34
2022-11-17T01:37:19.628Z,93568.34
2022-11-17T01:42:23.808Z,93558.41
2022-11-17T01:48:03.935Z,93566.06
2022-11-17T01:53:09.395Z,93564.94
2022-11-17T01:58:16.856Z,93534.78
2022-11-17T02:03:18.718Z,93557.28
2022-11-17T02:08:24.911Z,93566.06
2022-11-17T02:13:27.704Z,93549.25
2022-11-17T02:18:29.630Z,93550.00
2022-11-17T02:23:43.386Z,93550.88
2022-11-17T02:29:02.986Z,93537.00
2022-11-17T02:34:21.879Z,93519.81
2022-11-17T02:39:26.602Z,93534.94
2022-11-17T02:44:36.915Z,93542.97
2022-11-17T02:49:45.793Z,93557.59
2022-11-17T02:54:47.649Z,93547.16
2022-11-17T02:59:50.243Z,93519.22
2022-11-17T03:05:26.315Z,93534.94
2022-11-17T03:10:38.755Z,93474.28
2022-11-17T03:15:52.600Z,93530.75
2022-11-17T03:21:10.531Z,93537.56
2022-11-17T03:26:18.371Z,93528.06
2022-11-17T03:31:20.744Z,93523.41
2022-11-17T03:36:29.301Z,93520.44
2022-11-17T03:41:34.672Z,93493.34
2022-11-17T03:54:02.402Z,93491.28
2022-11-17T03:59:16.640Z,93494.31
2022-11-17T04:04:22.547Z,93497.78
2022-11-17T04:09:24.989Z,93491.66
2022-11-17T04:14:45.588Z,93467.75
2022-11-17T04:19:48.796Z,93482.38
2022-11-17T04:24:50.767Z,93433.38
2022-11-17T04:29:52.897Z,93466.31
2022-11-17T04:34:54.710Z,93472.41
2022-11-17T04:39:56.603Z,93470.50
2022-11-17T04:44:58.460Z,93437.25
2022-11-17T04:50:01.200Z,93476.63
2022-11-17T04:55:03.278Z,93479.75
2022-11-17T05:00:05.875Z,93482.84
2022-11-17T05:05:08.494Z,93472.41
2022-11-17T05:10:12.809Z,93485.25
2022-11-17T05:15:34.571Z,93476.63
2022-11-17T05:20:36.420Z,93470.56
2022-11-17T05:25:38.343Z,93474.81
2022-11-17T05:30:40.238Z,93468.81
2022-11-17T05:35:42.339Z,93474.16
2022-11-17T05:40:44.288Z,93475.00
2022-11-17T05:45:46.301Z,93466.13
2022-11-17T05:50:48.177Z,93449.75
2022-11-17T05:55:50.566Z,93443.09
2022-11-17T06:00:55.031Z,93430.44
2022-11-17T06:05:56.872Z,93433.88
2022-11-17T06:10:59.317Z,93455.28
2022-11-17T06:16:05.149Z,93454.81
2022-11-17T06:28:20.982Z,93452.41
2022-11-17T06:33:23.261Z,93446.28
2022-11-17T06:38:25.085Z,93444.28
2022-11-17T06:43:27.019Z,93414.97
2022-11-17T06:48:29.040Z,93448.72
2022-11-17T06:53:32.571Z,93452.97
2022-11-17T06:58:37.109Z,93466.47
2022-11-17T07:03:45.100Z,93449.03
2022-11-17T07:08:47.200Z,93469.09
2022-11-17T07:13:51.220Z,93482.88
2022-11-17T07:18:53.480Z,93461.25
2022-11-17T07:23:55.475Z,93490.31
2022-11-17T07:28:57.360Z,93492.34
2022-11-17T07:33:59.669Z,93481.72
2022-11-17T07:39:01.821Z,93487.00
2022-11-17T07:44:03.935Z,93480.03
2022-11-17T07:49:05.880Z,93480.03
2022-11-17T07:54:07.871Z,93505.75
2022-11-17T07:59:09.946Z,93511.09
2022-11-17T08:04:12.560Z,93517.22
2022-11-17T08:09:15.920Z,93519.47
2022-11-17T08:14:17.945Z,93507.31
2022-11-17T08:19:21.074Z,93536.03
2022-11-17T08:24:23.753Z,93530.44
2022-11-17T08:29:25.655Z,93526.66
2022-11-17T08:34:27.662Z,93525.88
2022-11-17T08:39:29.638Z,93539.72
2022-11-17T08:44:31.927Z,93504.66
2022-11-17T08:49:33.901Z,93529.31
2022-11-17T08:54:35.924Z,93503.81
2022-11-17T08:59:38.055Z,93483.53
2022-11-17T09:04:40.186Z,93535.28
2022-11-17T09:09:42.186Z,93528.03
2022-11-17T09:14:44.140Z,93516.31
2022-11-17T09:19:46.190Z,93518.97
2022-11-17T09:24:48.064Z,93522.16
2022-11-17T09:29:49.982Z,93526.81
2022-11-17T09:34:52.358Z,93526.09
2022-11-17T09:39:54.681Z,93521.56
2022-11-17T09:44:57.945Z,93523.66
2022-11-17T09:50:27.825Z,93539.78
2022-11-17T09:55:50.627Z,93523.84
2022-11-17T10:00:54.087Z,93522.00
2022-11-17T10:05:56.395Z,93522.88
2022-11-17T10:10:58.277Z,93529.84
2022-11-17T10:16:03.860Z,93523.84
2022-11-17T10:21:07.708Z,93526.59
2022-11-17T10:26:12.494Z,93532.38
2022-11-17T10:31:18.878Z,93539.81
2022-11-17T10:36:27.403Z,93531.09
2022-11-17T10:42:27.904Z,93549.91
2022-11-17T10:47:32.857Z,93518.72
2022-11-17T10:52:34.829Z,93497.63
2022-11-17T10:57:36.735Z,93508.41
2022-11-17T11:02:42.371Z,93532.28
2022-11-17T11:07:44.734Z,93523.41
2022-11-17T11:13:04.829Z,93511.03
2022-11-17T11:18:14.866Z,93505.34
2022-11-17T11:23:32.034Z,93469.94
2022-11-17T11:29:03.714Z,93492.91
2022-11-17T11:34:40.704Z,93480.50
2022-11-17T11:39:48.850Z,93448.91
2022-11-17T11:44:56.234Z,93476.72
2022-11-17T11:50:14.680Z,93471.13
2022-11-17T11:55:22.028Z,93466.25
2022-11-17T12:07:48.825Z,93466.41
2022-11-17T12:12:51.012Z,93456.13
2022-11-17T12:17:55.030Z,93456.19
2022-11-17T12:23:33.940Z,93449.06
2022-11-17T12:28:41.056Z,93450.19
2022-11-17T12:40:54.216Z,93407.31
2022-11-17T12:45:56.141Z,93441.28
2022-11-17T13:05:21.888Z,93425.78
2022-11-17T13:10:30.092Z,93420.47
2022-11-17T13:15:32.069Z,93373.50
2022-11-17T13:20:34.211Z,93367.69
2022-11-17T13:25:36.265Z,93406.56
2022-11-17T13:30:38.444Z,93405.00
2022-11-17T13:35:40.351Z,93400.47
2022-11-17T13:40:42.607Z,93386.63
2022-11-17T13:45:47.315Z,93385.13
2022-11-17T13:50:49.276Z,93350.38
2022-11-17T13:55:52.263Z,93377.66
2022-11-17T14:00:58.806Z,93385.69
2022-11-17T14:06:00.828Z,93382.63
2022-11-17T14:11:28.915Z,93381.56
2022-11-17T14:16:38.459Z,93387.66
2022-11-17T14:22:15.928Z,93378.06
2022-11-17T14:27:27.687Z,93381.53
2022-11-17T14:39:40.839Z,93367.22
2022-11-17T14:44:42.756Z,93386.06
2022-11-17T14:49:44.693Z,93385.22
2022-11-17T15:01:39.246Z,93367.38
2022-11-17T15:06:41.206Z,93367.03
2022-11-17T15:11:43.258Z,93368.53
2022-11-17T15:16:45.181Z,93361.53
2022-11-17T15:21:47.150Z,93365.84
2022-11-17T15:26:49.182Z,93362.41
2022-11-17T15:31:51.141Z,93367.72
2022-11-17T15:36:53.023Z,93360.75
2022-11-17T15:41:55.097Z,93385.41
2022-11-17T15:46:56.980Z,93388.88
2022-11-17T15:51:59.104Z,93360.66
2022-11-17T15:57:02.887Z,93397.19
2022-11-17T16:02:14.454Z,93387.38
2022-11-17T16:07:16.381Z,93407.75
2022-11-17T16:12:18.808Z,93415.03
2022-11-17T16:17:20.677Z,93403.03
2022-11-17T16:22:22.673Z,93408.69
2022-11-17T16:27:24.601Z,93423.97
2022-11-17T16:32:26.473Z,93437.31
2022-11-17T16:37:28.334Z,93444.53
2022-11-17T16:42:30.618Z,93449.44
2022-11-17T16:47:32.604Z,93453.97
2022-11-17T16:59:59.170Z,93477.84
2022-11-17T17:05:01.041Z,93474.63
2022-11-17T17:10:02.903Z,93496.06
2022-11-17T17:15:05.391Z,93507.09
2022-11-17T17:20:08.190Z,93488.75
2022-11-17T17:32:21.257Z,93541.19
2022-11-17T17:37:23.140Z,93555.00
2022-11-17T17:42:24.970Z,93554.22
2022-11-17T17:47:26.850Z,93541.44
2022-11-17T17:52:28.777Z,93548.66
2022-11-17T17:57:33.924Z,93547.31
2022-11-17T18:02:36.472Z,93547.50
2022-11-17T18:07:38.356Z,93528.00
2022-11-17T18:12:40.174Z,93555.75
2022-11-17T18:17:42.166Z,93546.19
2022-11-17T18:22:44.101Z,93571.28
2022-11-17T18:27:46.121Z,93589.47
2022-11-17T18:32:48.017Z,93598.28
2022-11-17T18:37:49.844Z,93615.84
2022-11-17T18:42:52.287Z,93602.19
2022-11-17T18:47:54.259Z,93617.75
2022-11-17T18:52:57.326Z,93593.56
2022-11-17T19:05:24.369Z,93607.59
2022-11-17T19:10:26.400Z,93596.88
2022-11-17T19:15:28.504Z,93595.25
2022-11-17T19:20:30.346Z,93597.94
2022-11-17T19:25:32.376Z,93599.78
2022-11-17T19:30:34.605Z,93564.53
2022-11-17T19:35:40.282Z,93601.09
2022-11-17T19:40:42.275Z,93587.25
2022-11-17T19:45:44.157Z,93612.59
2022-11-17T19:57:56.345Z,93649.34
2022-11-17T20:02:58.225Z,93629.53
2022-11-17T20:08:00.072Z,93664.75
2022-11-17T20:13:01.931Z,93666.94
2022-11-17T20:18:04.050Z,93667.94
2022-11-17T20:23:08.638Z,93667.84
2022-11-17T20:28:10.411Z,93675.97
2022-11-17T20:33:12.677Z,93667.00
2022-11-17T20:38:55.268Z,93678.56
2022-11-17T20:43:59.279Z,93650.03
2022-11-17T20:49:01.982Z,93670.44
2022-11-17T20:54:04.171Z,93672.53
2022-11-17T20:59:06.080Z,93671.25
2022-11-17T21:04:10.575Z,93659.94
2022-11-17T21:09:18.237Z,93681.94
2022-11-17T21:14:20.846Z,93677.19
2022-11-17T21:19:22.923Z,93648.72
2022-11-17T21:24:26.052Z,93677.41
2022-11-17T21:29:27.915Z,93650.50
2022-11-17T21:34:29.964Z,93657.75
2022-11-17T21:39:32.031Z,93690.69
2022-11-17T21:44:34.030Z,93691.06
2022-11-17T21:49:36.144Z,93691.47
2022-11-17T21:54:38.110Z,93712.53
2022-11-17T21:59:40.131Z,93719.41
2022-11-17T22:05:18.241Z,93722.69
2022-11-17T22:10:20.126Z,93710.50
2022-11-17T22:15:22.018Z,93717.53
2022-11-17T22:20:23.979Z,93703.31
2022-11-17T22:32:50.706Z,93736.38
2022-11-17T22:37:52.679Z,93735.69
2022-11-17T22:42:54.754Z,93712.25
2022-11-17T22:47:56.834Z,93734.97
2022-11-17T22:52:59.203Z,93733.59
2022-11-17T22:58:01.093Z,93720.16
2022-11-17T23:03:03.442Z,93728.28
2022-11-17T23:08:09.753Z,93733.94
2022-11-17T23:13:12.172Z,93728.28
2022-11-17T23:18:13.978Z,93741.38
2022-11-17T23:23:15.893Z,93732.19
2022-11-17T23:28:59.626Z,93742.75
2022-11-17T23:34:01.558Z,93738.00
2022-11-17T23:46:16.406Z,93743.78
2022-11-17T23:51:20.480Z,93711.75
2022-11-17T23:56:22.817Z,93734.78
